Time;durP1;ratioP1;P1;durP2;ratioP2;P2;SDS_P1;SDS_P2;PMS_P1;PMS_P2;Temp;Humidity;BMP_temperature;BMP_pressure;BME280_temperature;BME280_humidity;BME280_pressure;Samples;Min_cycle;Max_cycle;Signal;HPM_P1;HPM_P2
2021/08/22 00:00:43;;;;;;;10.00;6.87;;;;;;;22.42;57.24;97949.22;8518741;27;20391;-86
2021/08/22 00:04:46;;;;;;;8.37;7.23;;;;;;;22.40;57.38;97948.53;8486870;27;20239;-87
2021/08/22 00:08:54;;;;;;;9.47;7.40;;;;;;;22.33;57.64;97950.13;8485908;28;20606;-87
2021/08/22 00:12:57;;;;;;;9.37;7.03;;;;;;;22.34;57.64;97950.94;8485467;28;20213;-88
2021/08/22 00:17:01;;;;;;;10.07;7.20;;;;;;;22.28;57.81;97947.06;8485692;28;20209;-88
2021/08/22 00:21:04;;;;;;;10.80;7.20;;;;;;;22.21;57.71;97949.38;8485438;28;20208;-87
2021/08/22 00:25:08;;;;;;;14.13;7.03;;;;;;;22.23;57.93;97936.06;8485363;28;20505;-87
2021/08/22 00:29:11;;;;;;;8.87;6.53;;;;;;;22.27;58.00;97937.47;8485004;28;20197;-87
2021/08/22 00:33:15;;;;;;;9.93;7.10;;;;;;;22.15;58.19;97928.88;8485300;28;20490;-88
2021/08/22 00:37:17;;;;;;;8.17;7.37;;;;;;;22.25;58.03;97934.16;8484750;28;20382;-87
2021/08/22 00:41:20;;;;;;;15.10;7.80;;;;;;;22.19;57.97;97930.25;8484625;28;20208;-87
2021/08/22 00:45:23;;;;;;;9.37;7.30;;;;;;;22.19;58.11;97937.31;8484915;28;20225;-88
2021/08/22 00:49:29;;;;;;;8.33;7.23;;;;;;;22.22;57.99;97926.50;8484526;28;20220;-89
2021/08/22 00:53:32;;;;;;;9.50;7.93;;;;;;;22.19;57.98;97935.50;8484833;28;20237;-88
2021/08/22 00:57:35;;;;;;;10.80;7.30;;;;;;;22.19;57.97;97940.78;8484590;28;20212;-88
2021/08/22 01:01:39;;;;;;;8.90;6.87;;;;;;;22.15;58.41;97951.78;8490258;27;20394;-89
2021/08/22 01:05:51;;;;;;;7.33;6.27;;;;;;;22.10;58.29;97951.34;8517720;27;20236;-86
2021/08/22 01:09:54;;;;;;;12.57;7.20;;;;;;;22.06;58.44;97956.91;8518030;27;20368;-86
2021/08/22 01:13:59;;;;;;;9.37;6.80;;;;;;;22.06;58.61;97946.34;8516785;27;20230;-86
2021/08/22 01:18:02;;;;;;;8.03;6.83;;;;;;;21.98;59.21;97940.97;8517817;27;20212;-87
2021/08/22 01:22:08;;;;;;;10.07;7.50;;;;;;;22.00;58.60;97933.75;8517651;27;20216;-84
2021/08/22 01:26:11;;;;;;;9.13;7.60;;;;;;;21.88;59.03;97929.59;8520342;27;20234;-84
2021/08/22 01:30:16;;;;;;;9.87;7.90;;;;;;;21.97;59.00;97926.13;8517533;27;20200;-84
2021/08/22 01:34:21;;;;;;;11.90;7.67;;;;;;;21.95;58.73;97927.22;8517568;27;20201;-85
2021/08/22 01:38:24;;;;;;;7.77;6.90;;;;;;;21.92;58.85;97931.00;8517144;27;20214;-87
2021/08/22 01:42:27;;;;;;;12.77;7.67;;;;;;;21.97;58.42;97938.47;8517360;27;20200;-88
2021/08/22 01:46:31;;;;;;;11.67;8.00;;;;;;;22.02;58.45;97942.34;8516884;27;20241;-88
2021/08/22 01:50:36;;;;;;;11.47;7.77;;;;;;;21.85;58.88;97935.97;8516880;27;20490;-88
2021/08/22 01:54:39;;;;;;;11.20;8.00;;;;;;;21.86;59.19;97947.38;8516481;27;20246;-86
2021/08/22 01:58:42;;;;;;;10.97;7.80;;;;;;;21.88;59.15;97945.44;8516917;27;20205;-86
2021/08/22 02:02:48;;;;;;;9.57;7.10;;;;;;;21.89;59.36;97941.81;8516417;27;20207;-86
2021/08/22 02:06:56;;;;;;;8.30;7.20;;;;;;;21.90;58.68;97934.75;8516636;27;20263;-86
2021/08/22 02:11:03;;;;;;;10.40;7.90;;;;;;;21.75;59.48;97924.63;8517076;28;20488;-86
2021/08/22 02:15:10;;;;;;;10.37;8.30;;;;;;;21.88;59.38;97957.78;8516510;28;20205;-87
2021/08/22 02:19:13;;;;;;;17.13;7.77;;;;;;;21.69;61.50;97962.06;8516397;28;20204;-88
2021/08/22 02:23:18;;;;;;;9.93;8.17;;;;;;;21.44;62.61;97966.09;8517182;27;20200;-88
2021/08/22 02:27:22;;;;;;;12.60;8.20;;;;;;;21.56;63.31;98011.56;8523632;27;20220;-87
2021/08/22 02:31:27;;;;;;;19.67;11.60;;;;;;;21.65;63.93;98043.22;8523493;27;20209;-87
2021/08/22 02:35:30;;;;;;;13.10;9.20;;;;;;;21.53;63.81;98054.00;8523213;27;20208;-86
2021/08/22 02:39:35;;;;;;;13.40;9.30;;;;;;;21.52;63.51;98050.53;8523178;27;20201;-88
2021/08/22 02:43:38;;;;;;;9.23;8.20;;;;;;;21.29;64.70;98055.16;8523422;27;20201;-87
2021/08/22 02:47:41;;;;;;;10.40;8.50;;;;;;;21.01;66.70;98065.41;8522660;27;20227;-85
2021/08/22 02:51:44;;;;;;;9.70;6.87;;;;;;;20.75;67.71;98067.63;8522492;27;20239;-86
2021/08/22 02:55:48;;;;;;;10.77;6.47;;;;;;;21.03;66.49;98060.84;8522503;27;20206;-90
2021/08/22 02:59:51;;;;;;;8.83;6.40;;;;;;;21.09;66.30;98062.13;8522342;27;20202;-91
2021/08/22 03:03:54;;;;;;;9.17;5.80;;;;;;;21.13;66.53;98053.00;8522727;27;20408;-91
2021/08/22 03:07:57;;;;;;;7.37;5.20;;;;;;;21.18;65.93;98050.81;8522581;27;20523;-89
2021/08/22 03:12:01;;;;;;;7.80;5.30;;;;;;;21.14;65.53;98044.13;8522327;27;20196;-90
2021/08/22 03:16:04;;;;;;;6.27;4.73;;;;;;;21.10;65.85;98050.63;8522168;27;20492;-89
2021/08/22 03:20:09;;;;;;;5.83;4.80;;;;;;;21.23;65.44;98042.53;8522025;27;20360;-89
2021/08/22 03:24:12;;;;;;;7.47;4.83;;;;;;;21.05;66.04;98039.66;8522827;27;20202;-87
2021/08/22 03:28:16;;;;;;;6.77;4.60;;;;;;;21.02;65.93;98037.31;8521799;27;20217;-86
2021/08/22 03:32:19;;;;;;;5.87;4.30;;;;;;;21.15;65.39;98039.69;8522473;27;20197;-87
2021/08/22 03:36:22;;;;;;;5.87;4.30;;;;;;;21.15;65.56;98018.63;8521029;27;20201;-86
2021/08/22 03:40:25;;;;;;;6.97;4.73;;;;;;;21.18;65.06;98013.94;8521803;27;20204;-88
2021/08/22 03:44:29;;;;;;;9.33;5.00;;;;;;;21.05;65.49;97998.38;8521479;27;20202;-89
2021/08/22 03:48:32;;;;;;;7.00;4.87;;;;;;;21.14;65.93;98023.06;8521661;27;20387;-89
2021/08/22 03:52:34;;;;;;;9.47;5.13;;;;;;;21.29;65.43;98007.75;8520645;27;20240;-89
2021/08/22 03:56:37;;;;;;;9.83;5.03;;;;;;;21.13;65.54;97988.97;8520950;27;20201;-89
2021/08/22 04:00:41;;;;;;;8.50;4.93;;;;;;;21.27;65.46;98005.22;8520843;27;20206;-89
2021/08/22 04:04:45;;;;;;;9.63;4.70;;;;;;;21.35;65.48;97998.47;8520350;27;20229;-88
2021/08/22 04:08:47;;;;;;;8.43;5.43;;;;;;;21.25;65.71;97987.91;8520890;27;20198;-88
2021/08/22 04:12:50;;;;;;;8.00;5.00;;;;;;;21.23;65.52;97968.78;8520909;27;20208;-88
2021/08/22 04:16:55;;;;;;;6.33;4.80;;;;;;;21.25;65.43;97951.88;8521034;27;20492;-89
2021/08/22 04:20:57;;;;;;;9.40;4.87;;;;;;;21.27;65.33;97939.41;8520960;27;20237;-89
2021/08/22 04:25:00;;;;;;;10.23;5.03;;;;;;;21.15;65.96;97924.69;8520446;27;20232;-89
2021/08/22 04:29:03;;;;;;;8.83;5.03;;;;;;;21.17;66.08;97935.06;8520483;27;20201;-89
2021/08/22 04:33:07;;;;;;;8.60;4.73;;;;;;;21.17;65.66;97943.81;8520276;27;20198;-88
2021/08/22 04:37:10;;;;;;;6.70;4.93;;;;;;;21.21;65.43;97953.13;8520661;27;20205;-89
2021/08/22 04:41:17;;;;;;;6.50;5.20;;;;;;;21.19;65.70;97952.41;8520673;27;20200;-88
2021/08/22 04:45:25;;;;;;;5.97;4.80;;;;;;;21.12;66.12;97961.00;8526623;27;20221;-87
2021/08/22 04:49:29;;;;;;;8.00;4.80;;;;;;;21.09;66.30;97965.56;8532790;27;20197;-90
2021/08/22 04:53:33;;;;;;;7.37;5.10;;;;;;;21.12;65.98;97969.72;8519375;27;20263;-87
2021/08/22 04:57:36;;;;;;;7.33;5.27;;;;;;;21.12;65.64;97980.25;8519086;27;20203;-87
2021/08/22 05:01:39;;;;;;;7.57;4.87;;;;;;;20.86;66.68;97978.06;8521935;27;20196;-87
2021/08/22 05:05:43;;;;;;;6.77;4.80;;;;;;;20.82;66.48;97973.22;8518926;27;20410;-88
2021/08/22 05:09:46;;;;;;;8.13;5.13;;;;;;;20.87;66.49;97984.19;8518864;27;20228;-89
2021/08/22 05:13:49;;;;;;;8.73;4.80;;;;;;;20.83;66.36;97986.25;8518238;27;20209;-87
2021/08/22 05:17:51;;;;;;;8.20;4.90;;;;;;;20.68;66.78;97987.56;8518023;27;20215;-87
2021/08/22 05:21:56;;;;;;;7.83;5.30;;;;;;;20.91;66.19;97995.28;8517898;27;20209;-88
2021/08/22 05:25:59;;;;;;;9.60;5.20;;;;;;;20.96;66.03;97999.19;8518005;27;20224;-88
2021/08/22 05:30:01;;;;;;;7.33;5.23;;;;;;;20.91;66.68;97997.91;8517910;27;20204;-89
2021/08/22 05:34:04;;;;;;;7.00;5.07;;;;;;;21.01;65.98;98009.31;8517766;27;20204;-89
2021/08/22 05:38:09;;;;;;;9.27;5.53;;;;;;;21.03;66.27;98002.94;8517563;27;20201;-88
2021/08/22 05:42:11;;;;;;;8.83;5.27;;;;;;;20.94;66.28;98001.09;8516577;27;20189;-88
2021/08/22 05:46:14;;;;;;;10.37;5.60;;;;;;;21.01;66.40;97996.16;8516911;27;20223;-88
2021/08/22 05:50:17;;;;;;;6.97;5.60;;;;;;;21.01;66.43;97998.78;8517577;27;20218;-89
2021/08/22 05:54:21;;;;;;;6.93;5.10;;;;;;;20.95;66.79;98002.78;8517163;27;20547;-89
2021/08/22 05:58:24;;;;;;;8.53;5.10;;;;;;;21.06;66.88;98004.47;8516677;27;20493;-88
2021/08/22 06:02:27;;;;;;;8.57;5.00;;;;;;;21.03;66.60;97992.41;8516769;27;20197;-84
2021/08/22 06:06:30;;;;;;;6.67;5.10;;;;;;;21.18;66.15;98000.78;8517048;27;20240;-89
2021/08/22 06:10:34;;;;;;;7.53;5.43;;;;;;;21.32;65.73;98009.25;8517190;28;20240;-88
2021/08/22 06:14:37;;;;;;;8.53;5.30;;;;;;;21.37;65.51;98014.97;8516980;28;20201;-90
2021/08/22 06:18:40;;;;;;;7.70;5.30;;;;;;;21.42;65.39;98015.41;8517092;28;20507;-89
2021/08/22 06:22:43;;;;;;;7.37;5.03;;;;;;;21.45;65.39;98020.41;8517352;28;20206;-89
2021/08/22 06:26:50;;;;;;;9.53;5.47;;;;;;;21.46;65.29;98024.72;8516658;28;20227;-85
2021/08/22 06:30:53;;;;;;;6.17;5.03;;;;;;;21.42;66.13;98025.94;8516370;28;20207;-85
2021/08/22 06:34:56;;;;;;;8.10;4.90;;;;;;;21.54;65.64;98029.31;8516264;28;20197;-85
2021/08/22 06:38:59;;;;;;;6.17;4.50;;;;;;;21.36;65.64;98032.59;8516404;28;20197;-85
2021/08/22 06:43:03;;;;;;;5.60;4.90;;;;;;;21.43;65.90;98027.59;8516606;28;20197;-85
2021/08/22 06:47:07;;;;;;;7.47;4.50;;;;;;;21.53;65.07;98032.91;8516376;28;20232;-85
2021/08/22 06:51:10;;;;;;;7.20;4.53;;;;;;;21.54;65.34;98030.16;8516476;28;20240;-84
2021/08/22 06:55:12;;;;;;;6.90;4.57;;;;;;;21.61;64.88;98030.41;8516450;28;20204;-84
2021/08/22 06:59:17;;;;;;;6.47;4.30;;;;;;;21.53;64.90;98031.09;8515894;28;20209;-83
2021/08/22 07:03:19;;;;;;;5.80;4.20;;;;;;;21.49;65.36;98024.44;8515210;28;20211;-85
2021/08/22 07:07:22;;;;;;;5.77;4.30;;;;;;;21.53;65.40;98028.47;8515426;28;20221;-84
2021/08/22 07:11:25;;;;;;;5.93;4.13;;;;;;;21.36;66.74;98027.31;8517270;27;20188;-84
2021/08/22 07:15:29;;;;;;;5.40;4.20;;;;;;;21.73;64.85;98025.88;8521629;27;20199;-84
2021/08/22 07:19:32;;;;;;;6.77;4.40;;;;;;;21.58;65.49;98022.81;8522576;27;20197;-84
2021/08/22 07:23:35;;;;;;;5.50;4.40;;;;;;;21.72;63.99;98016.28;8539036;27;20184;-84
2021/08/22 07:27:38;;;;;;;8.60;4.47;;;;;;;21.82;63.57;98028.53;8523371;27;20221;-86
2021/08/22 07:31:42;;;;;;;5.30;4.43;;;;;;;22.00;63.33;98036.56;8522264;27;20488;-86
2021/08/22 07:35:45;;;;;;;6.03;4.23;;;;;;;22.15;63.28;98041.44;8521590;27;20193;-85
2021/08/22 07:39:48;;;;;;;7.07;4.10;;;;;;;22.31;62.61;98039.09;8522340;27;20197;-85
2021/08/22 07:43:51;;;;;;;5.13;4.03;;;;;;;22.68;61.62;98042.81;8521841;27;20215;-84
2021/08/22 07:47:55;;;;;;;5.10;3.73;;;;;;;22.84;60.88;98046.47;8521776;27;20531;-85
2021/08/22 07:51:58;;;;;;;5.50;4.40;;;;;;;22.58;61.98;98045.44;8521567;27;20411;-85
2021/08/22 07:56:03;;;;;;;5.67;3.67;;;;;;;22.66;61.89;98042.94;8523576;27;20201;-85
2021/08/22 08:00:07;;;;;;;6.87;4.20;;;;;;;22.55;62.10;98045.75;8521202;27;20211;-85
2021/08/22 08:04:11;;;;;;;5.40;3.83;;;;;;;22.53;61.71;98064.34;8520838;27;20227;-86
2021/08/22 08:08:14;;;;;;;12.13;4.00;;;;;;;22.63;62.29;98069.59;8520637;27;20217;-85
2021/08/22 08:12:17;;;;;;;6.77;4.20;;;;;;;22.67;62.11;98070.97;8520181;27;20189;-87
2021/08/22 08:16:19;;;;;;;8.33;4.47;;;;;;;22.81;61.59;98075.00;8517423;27;20601;-84
2021/08/22 08:20:24;;;;;;;5.40;4.27;;;;;;;22.87;61.48;98070.97;8520639;27;20205;-84
2021/08/22 08:24:27;;;;;;;6.47;4.13;;;;;;;23.05;61.04;98061.31;8520175;27;20208;-84
2021/08/22 08:28:31;;;;;;;7.43;3.70;;;;;;;23.09;61.17;98067.16;8520198;27;20528;-83
2021/08/22 08:32:34;;;;;;;8.00;4.27;;;;;;;22.81;61.43;98067.09;8519850;27;20197;-88
2021/08/22 08:36:38;;;;;;;5.23;3.93;;;;;;;22.88;61.94;98060.22;8519208;27;20201;-87
2021/08/22 08:40:41;;;;;;;5.93;4.13;;;;;;;23.00;61.54;98066.19;8519355;27;20201;-88
2021/08/22 08:44:44;;;;;;;7.77;4.03;;;;;;;23.08;61.47;98061.03;8520346;27;20204;-88
2021/08/22 08:48:47;;;;;;;5.33;4.20;;;;;;;23.17;62.47;98075.16;8519493;27;20228;-86
2021/08/22 08:52:52;;;;;;;5.90;4.57;;;;;;;;;;8519794;27;20411;-87
2021/08/22 08:56:56;;;;;;;5.23;4.33;;;;;;;23.12;62.12;98075.63;8519873;27;20200;-87
2021/08/22 09:00:58;;;;;;;4.70;4.27;;;;;;;23.23;61.31;98080.72;8519288;27;20204;-85
2021/08/22 09:05:13;;;;;;;5.47;4.60;;;;;;;23.22;61.24;98081.69;8519281;27;20224;-87
2021/08/22 09:09:52;;;;;;;5.17;4.67;;;;;;;23.19;60.98;98078.53;8519060;27;20224;-87
2021/08/22 09:14:44;;;;;;;4.87;4.40;;;;;;;23.31;61.91;98082.63;8516966;27;20278;-87
2021/08/22 09:19:50;;;;;;;8.73;5.30;;;;;;;23.39;61.93;98079.25;8518910;27;20205;-87
2021/08/22 09:24:23;;;;;;;5.80;4.77;;;;;;;23.38;61.69;98069.66;8518838;27;20197;-87
2021/08/22 09:29:15;;;;;;;8.67;5.57;;;;;;;23.48;61.18;98070.47;8518363;27;20224;-86
2021/08/22 09:34:00;;;;;;;7.20;5.40;;;;;;;23.37;61.61;98078.56;8518477;27;20209;-87
2021/08/22 09:38:35;;;;;;;6.40;5.60;;;;;;;23.29;61.46;98081.13;8518195;27;20201;-87
2021/08/22 09:43:14;;;;;;;7.40;5.90;;;;;;;22.98;61.13;98081.31;8518293;27;20197;-86
2021/08/22 09:48:06;;;;;;;6.97;5.90;;;;;;;22.89;61.79;98079.56;8517943;27;20232;-86
2021/08/22 09:52:38;;;;;;;8.03;6.30;;;;;;;22.84;62.46;98078.16;8517976;27;20232;-86
2021/08/22 09:57:19;;;;;;;7.10;6.40;;;;;;;22.96;63.82;98070.94;8520102;27;20205;-86
2021/08/22 10:02:08;;;;;;;9.83;7.03;;;;;;;22.96;64.32;98059.50;8531726;27;20216;-86
2021/08/22 10:06:49;;;;;;;7.03;6.33;;;;;;;22.87;64.20;98065.69;8517935;27;20217;-86
2021/08/22 10:11:10;;;;;;;8.20;7.13;;;;;;;23.01;64.63;98052.00;8517240;28;20200;-89
2021/08/22 10:15:17;;;;;;;9.53;7.07;;;;;;;23.12;64.57;98057.13;8517382;28;20208;-87
2021/08/22 10:19:23;;;;;;;9.73;7.03;;;;;;;23.20;65.09;98059.03;8517309;28;20205;-87
2021/08/22 10:23:50;;;;;;;8.03;7.10;;;;;;;23.30;64.25;98067.75;8517369;28;20201;-87
2021/08/22 10:27:56;;;;;;;8.37;6.57;;;;;;;23.26;64.41;98069.03;8517410;28;20224;-87
2021/08/22 10:32:14;;;;;;;8.67;6.47;;;;;;;23.25;62.62;98070.00;8517017;28;20204;-86
2021/08/22 10:36:30;;;;;;;8.90;7.23;;;;;;;23.19;63.04;98066.13;8517642;28;20222;-87
2021/08/22 10:40:36;;;;;;;9.57;7.30;;;;;;;23.36;62.06;98066.31;8517073;28;20385;-87
2021/08/22 10:44:40;;;;;;;7.90;6.90;;;;;;;23.40;61.66;98057.16;8517917;27;20504;-87
2021/08/22 10:48:50;;;;;;;9.10;7.00;;;;;;;23.54;60.59;98042.59;8524712;27;20255;-86
2021/08/22 10:53:31;;;;;;;7.87;6.67;;;;;;;23.74;60.37;98053.88;8523457;27;20288;-86
2021/08/22 10:57:53;;;;;;;7.50;6.80;;;;;;;23.54;61.44;98051.34;8523149;27;20437;-87
2021/08/22 11:02:09;;;;;;;7.43;6.63;;;;;;;23.47;61.09;98045.00;8523060;27;20199;-86
2021/08/22 11:06:12;;;;;;;6.63;5.93;;;;;;;23.62;61.86;98045.31;8523065;27;20217;-85
2021/08/22 11:10:15;;;;;;;11.77;9.90;;;;;;;23.36;61.38;98047.84;8522844;27;20232;-85
2021/08/22 11:14:20;;;;;;;12.60;11.40;;;;;;;23.34;61.55;98036.59;8522731;27;20197;-86
2021/08/22 11:18:22;;;;;;;9.73;8.57;;;;;;;23.46;61.58;98031.94;8522634;27;20201;-86
2021/08/22 11:22:27;;;;;;;8.23;7.43;;;;;;;23.64;60.80;98026.69;8522488;27;20208;-86
2021/08/22 11:26:31;;;;;;;8.70;7.27;;;;;;;23.72;61.21;98032.03;8522395;27;20204;-86
2021/08/22 11:30:35;;;;;;;7.70;6.97;;;;;;;23.51;61.82;98017.28;8522279;27;20232;-87
2021/08/22 11:34:38;;;;;;;8.70;6.90;;;;;;;23.64;60.99;98024.03;8522199;27;20209;-85
2021/08/22 11:38:41;;;;;;;7.37;6.67;;;;;;;23.90;60.17;98017.06;8522095;27;20197;-86
2021/08/22 11:42:45;;;;;;;7.83;7.00;;;;;;;24.03;59.54;97998.16;8521747;27;20206;-87
2021/08/22 11:46:51;;;;;;;10.53;6.63;;;;;;;24.07;59.63;98012.75;8522201;27;20197;-86
2021/08/22 11:51:01;;;;;;;8.30;6.20;;;;;;;23.96;59.41;98018.28;8521362;27;20534;-85
2021/08/22 11:55:05;;;;;;;8.47;5.93;;;;;;;24.11;60.37;98008.00;8522673;27;20476;-86
2021/08/22 11:59:23;;;;;;;7.00;6.13;;;;;;;23.96;59.12;98008.50;8520589;27;20201;-87
2021/08/22 12:03:28;;;;;;;10.23;6.17;;;;;;;23.76;59.81;98004.31;8521310;27;20523;-85
2021/08/22 12:07:31;;;;;;;8.10;5.80;;;;;;;23.59;61.20;98022.69;8521059;27;20235;-87
2021/08/22 12:11:34;;;;;;;12.77;6.90;;;;;;;23.30;62.29;98035.22;8521001;27;20198;-86
2021/08/22 12:15:39;;;;;;;9.30;6.83;;;;;;;22.95;65.63;98029.63;8520858;27;20196;-86
2021/08/22 12:19:43;;;;;;;8.10;5.80;;;;;;;22.98;64.67;98036.44;8520716;27;20201;-86
2021/08/22 12:23:47;;;;;;;10.13;6.23;;;;;;;22.69;64.96;98041.81;8520578;27;20205;-87
2021/08/22 12:27:49;;;;;;;7.57;6.73;;;;;;;22.35;66.66;98053.69;8520542;27;20224;-86
2021/08/22 12:31:55;;;;;;;8.13;7.20;;;;;;;22.27;66.92;98053.53;8528445;27;20197;-87
2021/08/22 12:36:04;;;;;;;9.43;6.50;;;;;;;22.30;66.77;98055.91;8529109;27;20204;-86
2021/08/22 12:40:09;;;;;;;7.87;6.07;;;;;;;22.17;66.59;98050.88;8520022;27;20201;-87
2021/08/22 12:44:14;;;;;;;7.63;5.97;;;;;;;22.30;65.70;98037.44;8519777;27;20204;-87
2021/08/22 12:48:16;;;;;;;6.83;5.53;;;;;;;22.41;65.14;98026.72;8519457;27;20286;-87
2021/08/22 12:52:21;;;;;;;8.87;6.13;;;;;;;22.40;64.91;98018.94;8519495;27;20233;-87
2021/08/22 12:56:24;;;;;;;9.80;6.53;;;;;;;22.44;65.43;98009.78;8519218;27;20204;-86
2021/08/22 13:00:27;;;;;;;10.27;5.93;;;;;;;22.48;64.51;98010.31;8519158;27;20201;-86
2021/08/22 13:04:30;;;;;;;8.60;6.83;;;;;;;22.45;64.69;98014.91;8518841;27;20287;-86
2021/08/22 13:08:34;;;;;;;8.33;6.27;;;;;;;22.38;64.77;98008.53;8517962;27;20235;-86
2021/08/22 13:12:37;;;;;;;9.00;6.73;;;;;;;22.32;65.43;98006.47;8518894;27;20196;-86
2021/08/22 13:16:40;;;;;;;9.07;7.03;;;;;;;22.30;65.34;98010.22;8518624;27;20510;-86
2021/08/22 13:20:43;;;;;;;8.17;7.33;;;;;;;22.09;66.53;98010.38;8518528;27;20212;-88
2021/08/22 13:24:47;;;;;;;7.63;6.83;;;;;;;22.18;66.50;98015.63;8518398;27;20426;-86
2021/08/22 13:28:50;;;;;;;8.20;7.30;;;;;;;22.14;66.06;98018.66;8517756;27;20538;-85
2021/08/22 13:32:53;;;;;;;8.93;7.53;;;;;;;22.31;65.28;98019.78;8517610;27;20266;-85
2021/08/22 13:37:04;;;;;;;8.93;7.37;;;;;;;22.34;66.40;98014.25;8518042;27;20507;-85
2021/08/22 13:41:09;;;;;;;9.67;6.83;;;;;;;22.55;64.99;98006.16;8517761;27;20204;-85
2021/08/22 13:45:12;;;;;;;11.63;6.73;;;;;;;22.71;65.65;97993.16;8519832;27;20197;-85
2021/08/22 13:49:15;;;;;;;7.90;7.13;;;;;;;22.72;65.88;97996.66;8517406;27;20228;-86
2021/08/22 13:53:18;;;;;;;10.37;7.80;;;;;;;22.72;65.62;98005.41;8517185;27;20229;-85
2021/08/22 13:57:22;;;;;;;11.07;9.97;;;;;;;22.75;65.89;97993.72;8517058;27;20197;-86
2021/08/22 14:01:25;;;;;;;13.07;11.63;;;;;;;22.83;66.07;98002.59;8517189;27;20201;-85
2021/08/22 14:05:28;;;;;;;11.63;8.33;;;;;;;22.92;65.02;97989.47;8516792;27;20228;-87
2021/08/22 14:09:31;;;;;;;8.80;7.77;;;;;;;22.90;66.04;97988.81;8516998;28;20229;-86
2021/08/22 14:13:35;;;;;;;8.47;7.37;;;;;;;22.92;65.78;97973.66;8516785;28;20242;-87
2021/08/22 14:17:38;;;;;;;7.77;7.07;;;;;;;22.93;65.76;97970.03;8516604;28;20288;-87
2021/08/22 14:21:41;;;;;;;7.67;6.73;;;;;;;22.93;64.91;97973.50;8521249;27;20204;-86
2021/08/22 14:25:43;;;;;;;9.73;7.53;;;;;;;22.98;64.99;97973.06;8523665;27;20378;-87
2021/08/22 14:29:47;;;;;;;8.83;7.80;;;;;;;22.99;66.24;97966.81;8523490;27;20224;-87
2021/08/22 14:33:50;;;;;;;10.47;8.00;;;;;;;22.80;66.07;97973.81;8523756;27;20510;-87
2021/08/22 14:37:53;;;;;;;8.77;7.90;;;;;;;22.78;66.10;97973.16;8523451;27;20204;-88
2021/08/22 14:42:01;;;;;;;8.27;7.43;;;;;;;22.78;66.25;97981.06;8523476;27;20211;-87
2021/08/22 14:46:05;;;;;;;7.97;7.27;;;;;;;22.76;66.53;97984.84;8523249;27;20204;-87
2021/08/22 14:50:08;;;;;;;9.00;7.67;;;;;;;22.73;67.29;97990.38;8523154;27;20250;-87
2021/08/22 14:54:11;;;;;;;8.43;7.53;;;;;;;22.62;66.42;97989.59;8522810;27;20239;-87
2021/08/22 14:58:15;;;;;;;9.03;7.53;;;;;;;22.74;66.25;97989.44;8522778;27;20386;-87
2021/08/22 15:02:19;;;;;;;8.90;7.93;;;;;;;22.72;66.00;97986.94;8523078;27;20220;-88
2021/08/22 15:06:22;;;;;;;8.37;7.50;;;;;;;22.63;66.25;97980.69;8525388;27;20287;-88
2021/08/22 15:10:25;;;;;;;8.77;6.63;;;;;;;22.64;66.95;97971.00;8525358;27;20259;-88
2021/08/22 15:14:28;;;;;;;8.00;7.20;;;;;;;22.56;66.48;97970.84;8522705;27;20201;-88
2021/08/22 15:18:32;;;;;;;7.33;6.47;;;;;;;22.69;66.54;97970.53;8522284;27;20197;-88
2021/08/22 15:22:34;;;;;;;8.50;7.70;;;;;;;22.61;67.68;97971.25;8522088;27;20197;-88
2021/08/22 15:26:37;;;;;;;7.67;6.47;;;;;;;22.59;66.38;97971.41;8521808;27;20196;-88
2021/08/22 15:30:40;;;;;;;8.73;6.97;;;;;;;22.67;66.49;97960.13;8521269;27;20225;-87
2021/08/22 15:34:44;;;;;;;7.53;6.73;;;;;;;22.69;66.98;97967.91;8521227;27;20208;-88
2021/08/22 15:38:47;;;;;;;7.60;6.90;;;;;;;22.61;67.13;97966.81;8521861;27;20197;-88
2021/08/22 15:42:50;;;;;;;8.07;7.07;;;;;;;22.65;67.76;97980.56;8521446;27;20213;-88
2021/08/22 15:46:53;;;;;;;9.13;6.77;;;;;;;22.57;68.41;97993.66;8521595;27;20204;-88
2021/08/22 15:50:57;;;;;;;12.67;6.27;;;;;;;22.67;62.77;98002.34;8521152;27;20217;-88
2021/08/22 15:55:00;;;;;;;12.83;7.37;;;;;;;22.69;63.33;97996.94;8521462;27;20225;-89
2021/08/22 15:59:03;;;;;;;8.73;7.03;;;;;;;23.03;63.65;98000.72;8519954;27;20453;-87
2021/08/22 16:03:06;;;;;;;7.47;6.27;;;;;;;22.63;65.21;98004.44;8521406;27;20201;-86
2021/08/22 16:07:10;;;;;;;8.10;6.10;;;;;;;22.56;64.21;98013.06;8521423;27;20224;-87
2021/08/22 16:11:13;;;;;;;6.57;5.63;;;;;;;22.51;63.66;98028.53;8521320;27;20228;-88
2021/08/22 16:15:16;;;;;;;3.93;2.80;;;;;;;21.62;59.95;98077.72;8521344;27;20197;-88
2021/08/22 16:19:19;;;;;;;7.73;3.23;;;;;;;20.87;61.01;98078.94;8521209;27;20246;-87
2021/08/22 16:23:23;;;;;;;12.13;4.60;;;;;;;21.20;61.76;98091.00;8521360;27;20220;-87
2021/08/22 16:27:26;;;;;;;3.87;2.10;;;;;;;20.86;59.01;98096.50;8521968;27;20217;-86
2021/08/22 16:31:29;;;;;;;6.07;4.00;;;;;;;20.96;61.15;98085.19;8526615;27;20495;-87
2021/08/22 16:35:34;;;;;;;5.10;2.60;;;;;;;21.00;60.24;98084.81;8521949;27;20235;-88
2021/08/22 16:39:38;;;;;;;4.93;2.90;;;;;;;21.02;60.89;98092.59;8522001;27;20225;-87
2021/08/22 16:43:41;;;;;;;5.90;2.93;;;;;;;20.71;61.11;98097.81;8519892;27;20495;-86
2021/08/22 16:47:44;;;;;;;5.20;2.57;;;;;;;20.85;58.91;98092.22;8519969;27;20497;-87
2021/08/22 16:51:46;;;;;;;5.57;3.03;;;;;;;21.01;61.35;98106.72;8519840;27;20241;-86
2021/08/22 16:55:53;;;;;;;7.07;2.70;;;;;;;21.05;60.08;98105.47;8520226;27;20219;-86
2021/08/22 16:59:56;;;;;;;3.60;2.10;;;;;;;20.97;60.75;98103.50;8519683;27;20211;-86
2021/08/22 17:03:59;;;;;;;7.33;2.37;;;;;;;21.09;60.50;98112.16;8519496;27;20226;-86
2021/08/22 17:08:02;;;;;;;3.47;2.20;;;;;;;21.04;60.65;98109.09;8519389;27;20197;-87
2021/08/22 17:12:08;;;;;;;2.43;1.60;;;;;;;20.84;60.20;98106.34;8518942;27;20256;-86
2021/08/22 17:16:12;;;;;;;2.37;1.70;;;;;;;20.63;60.76;98102.88;8518653;27;20201;-86
2021/08/22 17:20:15;;;;;;;2.63;1.40;;;;;;;20.50;60.57;98090.72;8518098;27;20201;-86
2021/08/22 17:24:18;;;;;;;2.60;1.50;;;;;;;20.61;60.85;98099.53;8518288;27;20200;-86
2021/08/22 17:28:22;;;;;;;3.70;1.67;;;;;;;20.42;60.66;98103.66;8518675;27;20219;-86
2021/08/22 17:32:25;;;;;;;3.03;1.90;;;;;;;20.55;61.04;98097.41;8518769;27;20228;-86
2021/08/22 17:36:28;;;;;;;1.53;1.43;;;;;;;20.49;61.17;98110.09;8518506;27;20189;-86
2021/08/22 17:40:32;;;;;;;2.57;1.57;;;;;;;20.44;61.73;98116.69;8521564;27;20197;-86
2021/08/22 17:44:36;;;;;;;3.80;1.47;;;;;;;20.33;61.68;98119.38;8529168;27;20373;-86
2021/08/22 17:48:41;;;;;;;2.40;1.70;;;;;;;20.36;62.06;98119.97;8518978;27;20207;-87
2021/08/22 17:52:44;;;;;;;3.90;1.57;;;;;;;20.38;62.39;98106.69;8514969;27;20240;-86
2021/08/22 17:56:47;;;;;;;4.47;2.00;;;;;;;20.37;62.28;98119.00;8516555;27;20196;-86
2021/08/22 18:00:51;;;;;;;3.37;2.10;;;;;;;20.36;61.70;98117.31;8517183;27;20497;-85
2021/08/22 18:04:54;;;;;;;3.27;1.70;;;;;;;20.26;62.36;98113.78;8517639;27;20223;-86
2021/08/22 18:08:57;;;;;;;6.77;1.90;;;;;;;20.19;62.45;98105.56;8518235;27;20504;-85
2021/08/22 18:13:00;;;;;;;1.63;1.50;;;;;;;20.14;62.45;98110.34;8517439;28;20232;-86
2021/08/22 18:17:04;;;;;;;2.50;1.80;;;;;;;20.24;62.43;98107.81;8517530;28;20200;-88
2021/08/22 18:21:07;;;;;;;2.83;2.07;;;;;;;20.13;61.41;98106.06;8517276;28;20208;-88
2021/08/22 18:25:11;;;;;;;3.43;2.13;;;;;;;20.14;61.96;98107.72;8517507;28;20258;-89
2021/08/22 18:29:13;;;;;;;3.60;2.10;;;;;;;20.13;62.33;98113.94;8517231;28;20197;-91
2021/08/22 18:33:20;;;;;;;2.50;2.07;;;;;;;20.16;62.41;98134.72;8517167;28;20233;-87
2021/08/22 18:37:22;;;;;;;2.47;1.83;;;;;;;20.08;62.27;98122.19;8517428;28;20204;-87
2021/08/22 18:41:25;;;;;;;2.90;2.60;;;;;;;19.77;62.78;98094.94;8519343;28;20197;-91
2021/08/22 18:45:28;;;;;;;5.73;2.90;;;;;;;19.88;62.87;98080.94;8518594;28;20201;-91
2021/08/22 18:49:33;;;;;;;2.93;2.40;;;;;;;19.94;62.85;98090.94;8518270;28;20197;-90
2021/08/22 18:53:36;;;;;;;4.00;2.00;;;;;;;19.91;62.64;98125.34;8517871;27;20347;-92
2021/08/22 18:57:39;;;;;;;5.43;2.40;;;;;;;19.72;63.66;98139.13;8518050;28;20299;-93
2021/08/22 19:01:42;;;;;;;2.47;1.80;;;;;;;19.73;63.30;98144.25;8519097;28;20202;-91
2021/08/22 19:05:47;;;;;;;3.63;1.87;;;;;;;19.67;62.77;98143.88;8518830;27;20328;-91
2021/08/22 19:09:50;;;;;;;2.33;1.80;;;;;;;19.64;62.97;98146.75;8524498;27;20209;-92
2021/08/22 19:13:53;;;;;;;2.00;1.80;;;;;;;19.66;62.78;98145.66;8525326;27;20201;-91